sensor_id;sensor_type;location;lat;lon;timestamp;temperature;humidity
19037;DHT22;9651;49.138;8.900;2023-12-28T00:03:39;2.80;99.90
19037;DHT22;9651;49.138;8.900;2023-12-28T00:07:41;2.80;99.90
19037;DHT22;9651;49.138;8.900;2023-12-28T00:11:43;2.80;99.90
19037;DHT22;9651;49.138;8.900;2023-12-28T00:15:45;2.70;99.90
19037;DHT22;9651;49.138;8.900;2023-12-28T00:19:48;2.70;99.90
19037;DHT22;9651;49.138;8.900;2023-12-28T00:23:50;2.70;99.90
19037;DHT22;9651;49.138;8.900;2023-12-28T00:27:52;2.60;99.90
19037;DHT22;9651;49.138;8.900;2023-12-28T00:31:55;2.50;99.90
19037;DHT22;9651;49.138;8.900;2023-12-28T00:35:59;2.40;99.90
19037;DHT22;9651;49.138;8.900;2023-12-28T00:40:00;2.40;99.90
19037;DHT22;9651;49.138;8.900;2023-12-28T00:44:04;2.40;99.90
19037;DHT22;9651;49.138;8.900;2023-12-28T00:48:07;2.40;99.90
19037;DHT22;9651;49.138;8.900;2023-12-28T00:52:10;2.30;99.90
19037;DHT22;9651;49.138;8.900;2023-12-28T00:56:12;2.10;99.90
19037;DHT22;9651;49.138;8.900;2023-12-28T01:00:14;2.20;99.90
19037;DHT22;9651;49.138;8.900;2023-12-28T01:04:16;2.20;99.90
19037;DHT22;9651;49.138;8.900;2023-12-28T01:08:20;2.30;99.90
19037;DHT22;9651;49.138;8.900;2023-12-28T01:12:23;2.30;99.90
19037;DHT22;9651;49.138;8.900;2023-12-28T01:16:25;2.30;99.90
19037;DHT22;9651;49.138;8.900;2023-12-28T01:20:28;2.30;99.90
19037;DHT22;9651;49.138;8.900;2023-12-28T01:24:31;2.20;99.90
19037;DHT22;9651;49.138;8.900;2023-12-28T01:28:33;2.10;99.90
19037;DHT22;9651;49.138;8.900;2023-12-28T01:32:35;2.10;99.90
19037;DHT22;9651;49.138;8.900;2023-12-28T01:36:37;2.10;99.90
19037;DHT22;9651;49.138;8.900;2023-12-28T01:40:45;2.20;99.90
19037;DHT22;9651;49.138;8.900;2023-12-28T01:44:47;2.10;99.90
19037;DHT22;9651;49.138;8.900;2023-12-28T01:48:50;2.10;99.90
19037;DHT22;9651;49.138;8.900;2023-12-28T01:52:54;2.10;99.90
19037;DHT22;9651;49.138;8.900;2023-12-28T01:57:00;2.10;99.90
19037;DHT22;9651;49.138;8.900;2023-12-28T02:01:03;2.10;99.90
19037;DHT22;9651;49.138;8.900;2023-12-28T02:05:06;2.10;99.90
19037;DHT22;9651;49.138;8.900;2023-12-28T02:09:08;2.10;99.90
19037;DHT22;9651;49.138;8.900;2023-12-28T02:13:11;2.10;99.90
19037;DHT22;9651;49.138;8.900;2023-12-28T02:17:18;2.10;99.90
19037;DHT22;9651;49.138;8.900;2023-12-28T02:21:31;2.20;99.90
19037;DHT22;9651;49.138;8.900;2023-12-28T02:25:35;2.20;99.90
19037;DHT22;9651;49.138;8.900;2023-12-28T02:29:37;2.20;99.90
19037;DHT22;9651;49.138;8.900;2023-12-28T02:33:54;2.20;99.90
19037;DHT22;9651;49.138;8.900;2023-12-28T02:38:02;2.20;99.90
19037;DHT22;9651;49.138;8.900;2023-12-28T02:42:10;2.20;99.90
19037;DHT22;9651;49.138;8.900;2023-12-28T02:46:15;2.30;99.90
19037;DHT22;9651;49.138;8.900;2023-12-28T02:50:17;2.40;99.90
19037;DHT22;9651;49.138;8.900;2023-12-28T02:54:19;2.70;99.90
19037;DHT22;9651;49.138;8.900;2023-12-28T02:58:22;3.20;99.90
19037;DHT22;9651;49.138;8.900;2023-12-28T03:02:24;3.90;99.90
19037;DHT22;9651;49.138;8.900;2023-12-28T03:06:27;4.30;99.90
19037;DHT22;9651;49.138;8.900;2023-12-28T03:10:28;4.60;99.90
19037;DHT22;9651;49.138;8.900;2023-12-28T03:14:32;4.80;99.90
19037;DHT22;9651;49.138;8.900;2023-12-28T03:18:34;5.00;99.90
19037;DHT22;9651;49.138;8.900;2023-12-28T03:22:35;5.20;99.90
19037;DHT22;9651;49.138;8.900;2023-12-28T03:26:38;5.50;99.90
19037;DHT22;9651;49.138;8.900;2023-12-28T03:30:41;5.80;99.90
19037;DHT22;9651;49.138;8.900;2023-12-28T03:34:43;6.00;99.90
19037;DHT22;9651;49.138;8.900;2023-12-28T03:38:45;6.20;99.90
19037;DHT22;9651;49.138;8.900;2023-12-28T03:42:47;6.40;99.90
19037;DHT22;9651;49.138;8.900;2023-12-28T03:46:50;6.40;99.90
19037;DHT22;9651;49.138;8.900;2023-12-28T03:50:52;6.50;99.90
19037;DHT22;9651;49.138;8.900;2023-12-28T03:54:54;6.60;99.90
19037;DHT22;9651;49.138;8.900;2023-12-28T03:58:56;6.70;99.90
19037;DHT22;9651;49.138;8.900;2023-12-28T04:03:00;6.70;99.90
19037;DHT22;9651;49.138;8.900;2023-12-28T04:07:02;7.00;99.90
19037;DHT22;9651;49.138;8.900;2023-12-28T04:11:08;7.20;99.90
19037;DHT22;9651;49.138;8.900;2023-12-28T04:15:09;7.40;99.90
19037;DHT22;9651;49.138;8.900;2023-12-28T04:19:13;7.50;99.90
19037;DHT22;9651;49.138;8.900;2023-12-28T04:23:15;7.60;99.90
19037;DHT22;9651;49.138;8.900;2023-12-28T04:27:17;7.70;99.90
19037;DHT22;9651;49.138;8.900;2023-12-28T04:31:19;7.80;99.90
19037;DHT22;9651;49.138;8.900;2023-12-28T04:35:22;7.90;99.90
19037;DHT22;9651;49.138;8.900;2023-12-28T04:39:24;8.20;99.90
19037;DHT22;9651;49.138;8.900;2023-12-28T04:43:26;8.30;99.90
19037;DHT22;9651;49.138;8.900;2023-12-28T04:47:28;8.20;99.90
19037;DHT22;9651;49.138;8.900;2023-12-28T04:51:32;8.20;99.90
19037;DHT22;9651;49.138;8.900;2023-12-28T04:55:34;8.30;99.90
19037;DHT22;9651;49.138;8.900;2023-12-28T04:59:38;8.40;99.90
19037;DHT22;9651;49.138;8.900;2023-12-28T05:03:40;8.40;99.90
19037;DHT22;9651;49.138;8.900;2023-12-28T05:07:43;8.40;99.90
19037;DHT22;9651;49.138;8.900;2023-12-28T05:11:45;8.40;99.90
19037;DHT22;9651;49.138;8.900;2023-12-28T05:15:47;8.40;99.90
19037;DHT22;9651;49.138;8.900;2023-12-28T05:19:49;8.40;99.90
19037;DHT22;9651;49.138;8.900;2023-12-28T05:23:52;8.50;99.90
19037;DHT22;9651;49.138;8.900;2023-12-28T05:27:54;8.50;99.90
19037;DHT22;9651;49.138;8.900;2023-12-28T05:31:57;8.50;99.90
19037;DHT22;9651;49.138;8.900;2023-12-28T05:35:59;8.50;99.90
19037;DHT22;9651;49.138;8.900;2023-12-28T05:40:03;8.50;99.90
19037;DHT22;9651;49.138;8.900;2023-12-28T05:44:05;8.50;99.90
19037;DHT22;9651;49.138;8.900;2023-12-28T05:48:06;8.50;99.90
19037;DHT22;9651;49.138;8.900;2023-12-28T05:52:08;8.50;99.90
19037;DHT22;9651;49.138;8.900;2023-12-28T05:56:12;8.50;99.90
19037;DHT22;9651;49.138;8.900;2023-12-28T06:00:14;8.50;99.90
19037;DHT22;9651;49.138;8.900;2023-12-28T06:04:16;8.50;99.90
19037;DHT22;9651;49.138;8.900;2023-12-28T06:08:18;8.50;99.90
19037;DHT22;9651;49.138;8.900;2023-12-28T06:12:21;8.50;99.90
19037;DHT22;9651;49.138;8.900;2023-12-28T06:16:23;8.40;99.90
19037;DHT22;9651;49.138;8.900;2023-12-28T06:20:26;8.40;99.90
19037;DHT22;9651;49.138;8.900;2023-12-28T06:24:28;8.40;99.90
19037;DHT22;9651;49.138;8.900;2023-12-28T06:28:31;8.40;99.90
19037;DHT22;9651;49.138;8.900;2023-12-28T06:32:33;8.30;99.90
19037;DHT22;9651;49.138;8.900;2023-12-28T06:36:35;8.30;99.90
19037;DHT22;9651;49.138;8.900;2023-12-28T06:40:36;8.20;99.90
19037;DHT22;9651;49.138;8.900;2023-12-28T06:44:39;8.20;99.90
19037;DHT22;9651;49.138;8.900;2023-12-28T06:48:41;8.10;99.90
19037;DHT22;9651;49.138;8.900;2023-12-28T06:52:44;8.00;99.90
19037;DHT22;9651;49.138;8.900;2023-12-28T06:56:48;7.90;99.90
19037;DHT22;9651;49.138;8.900;2023-12-28T07:00:51;8.00;99.90
19037;DHT22;9651;49.138;8.900;2023-12-28T07:04:53;7.90;99.90
19037;DHT22;9651;49.138;8.900;2023-12-28T07:08:57;7.90;99.90
19037;DHT22;9651;49.138;8.900;2023-12-28T07:12:59;7.90;99.90
19037;DHT22;9651;49.138;8.900;2023-12-28T07:17:03;7.90;99.90
19037;DHT22;9651;49.138;8.900;2023-12-28T07:21:05;7.90;99.90
19037;DHT22;9651;49.138;8.900;2023-12-28T07:25:10;7.80;99.90
19037;DHT22;9651;49.138;8.900;2023-12-28T07:29:12;7.80;99.90
19037;DHT22;9651;49.138;8.900;2023-12-28T07:33:15;7.80;99.90
19037;DHT22;9651;49.138;8.900;2023-12-28T07:37:17;7.80;99.90
19037;DHT22;9651;49.138;8.900;2023-12-28T07:41:19;7.70;99.90
19037;DHT22;9651;49.138;8.900;2023-12-28T07:45:20;7.70;99.90
19037;DHT22;9651;49.138;8.900;2023-12-28T07:49:25;7.70;99.90
19037;DHT22;9651;49.138;8.900;2023-12-28T07:53:31;7.70;99.90
19037;DHT22;9651;49.138;8.900;2023-12-28T07:57:39;7.70;99.90
19037;DHT22;9651;49.138;8.900;2023-12-28T08:01:41;7.70;99.90
19037;DHT22;9651;49.138;8.900;2023-12-28T08:05:44;7.70;99.90
19037;DHT22;9651;49.138;8.900;2023-12-28T08:09:46;7.70;99.90
19037;DHT22;9651;49.138;8.900;2023-12-28T08:13:48;7.70;99.90
19037;DHT22;9651;49.138;8.900;2023-12-28T08:17:50;7.70;99.90
19037;DHT22;9651;49.138;8.900;2023-12-28T08:21:53;7.70;99.90
19037;DHT22;9651;49.138;8.900;2023-12-28T08:25:55;7.70;99.90
19037;DHT22;9651;49.138;8.900;2023-12-28T08:29:57;7.80;99.90
19037;DHT22;9651;49.138;8.900;2023-12-28T08:33:59;7.90;99.90
19037;DHT22;9651;49.138;8.900;2023-12-28T08:38:02;7.90;99.90
19037;DHT22;9651;49.138;8.900;2023-12-28T08:42:06;7.90;99.90
19037;DHT22;9651;49.138;8.900;2023-12-28T08:46:08;7.90;99.90
19037;DHT22;9651;49.138;8.900;2023-12-28T08:50:10;8.00;99.90
19037;DHT22;9651;49.138;8.900;2023-12-28T08:54:13;8.00;99.90
19037;DHT22;9651;49.138;8.900;2023-12-28T08:58:16;8.10;99.90
19037;DHT22;9651;49.138;8.900;2023-12-28T09:02:18;8.20;99.90
19037;DHT22;9651;49.138;8.900;2023-12-28T09:06:20;8.20;99.90
19037;DHT22;9651;49.138;8.900;2023-12-28T09:10:23;8.20;99.90
19037;DHT22;9651;49.138;8.900;2023-12-28T09:14:25;8.30;99.90
19037;DHT22;9651;49.138;8.900;2023-12-28T09:18:27;8.20;99.90
19037;DHT22;9651;49.138;8.900;2023-12-28T09:22:29;8.20;99.90
19037;DHT22;9651;49.138;8.900;2023-12-28T09:26:32;8.20;99.90
19037;DHT22;9651;49.138;8.900;2023-12-28T09:30:34;8.20;99.90
19037;DHT22;9651;49.138;8.900;2023-12-28T09:34:36;8.20;99.90
19037;DHT22;9651;49.138;8.900;2023-12-28T09:38:37;8.20;99.90
19037;DHT22;9651;49.138;8.900;2023-12-28T09:42:49;8.30;99.90
19037;DHT22;9651;49.138;8.900;2023-12-28T09:46:53;8.30;99.90
19037;DHT22;9651;49.138;8.900;2023-12-28T09:50:56;8.40;99.90
19037;DHT22;9651;49.138;8.900;2023-12-28T09:54:58;8.50;99.90
19037;DHT22;9651;49.138;8.900;2023-12-28T09:59:02;8.60;99.90
19037;DHT22;9651;49.138;8.900;2023-12-28T10:03:06;8.70;99.90
19037;DHT22;9651;49.138;8.900;2023-12-28T10:07:08;8.90;99.90
19037;DHT22;9651;49.138;8.900;2023-12-28T10:11:10;9.00;99.90
19037;DHT22;9651;49.138;8.900;2023-12-28T10:15:13;9.20;99.90
19037;DHT22;9651;49.138;8.900;2023-12-28T10:19:15;9.30;99.90
19037;DHT22;9651;49.138;8.900;2023-12-28T10:23:23;9.30;99.90
19037;DHT22;9651;49.138;8.900;2023-12-28T10:27:26;9.40;99.90
19037;DHT22;9651;49.138;8.900;2023-12-28T10:31:30;9.40;99.90
19037;DHT22;9651;49.138;8.900;2023-12-28T10:35:32;9.40;99.90
19037;DHT22;9651;49.138;8.900;2023-12-28T10:39:34;9.50;99.90
19037;DHT22;9651;49.138;8.900;2023-12-28T10:43:46;9.50;99.90
19037;DHT22;9651;49.138;8.900;2023-12-28T10:47:57;9.50;99.90
19037;DHT22;9651;49.138;8.900;2023-12-28T10:52:05;9.50;99.90
19037;DHT22;9651;49.138;8.900;2023-12-28T10:56:20;9.50;99.90
19037;DHT22;9651;49.138;8.900;2023-12-28T11:00:24;9.50;99.90
19037;DHT22;9651;49.138;8.900;2023-12-28T11:04:34;9.60;99.90
19037;DHT22;9651;49.138;8.900;2023-12-28T11:08:39;9.60;99.90
19037;DHT22;9651;49.138;8.900;2023-12-28T11:12:43;9.70;99.90
19037;DHT22;9651;49.138;8.900;2023-12-28T11:16:46;9.80;99.90
19037;DHT22;9651;49.138;8.900;2023-12-28T11:20:50;10.00;99.90
19037;DHT22;9651;49.138;8.900;2023-12-28T11:24:53;10.20;99.90
19037;DHT22;9651;49.138;8.900;2023-12-28T11:29:00;10.20;99.90
19037;DHT22;9651;49.138;8.900;2023-12-28T11:33:04;10.20;99.90
19037;DHT22;9651;49.138;8.900;2023-12-28T11:37:08;10.20;99.90
19037;DHT22;9651;49.138;8.900;2023-12-28T11:41:16;10.20;99.90
19037;DHT22;9651;49.138;8.900;2023-12-28T11:45:19;10.10;99.90
19037;DHT22;9651;49.138;8.900;2023-12-28T11:49:25;10.00;99.90
19037;DHT22;9651;49.138;8.900;2023-12-28T11:53:29;9.90;99.90
19037;DHT22;9651;49.138;8.900;2023-12-28T11:57:31;9.90;99.90
19037;DHT22;9651;49.138;8.900;2023-12-28T12:01:33;9.90;99.90
19037;DHT22;9651;49.138;8.900;2023-12-28T12:05:35;9.90;99.90
19037;DHT22;9651;49.138;8.900;2023-12-28T12:09:38;9.80;99.90
19037;DHT22;9651;49.138;8.900;2023-12-28T12:13:40;9.80;99.90
19037;DHT22;9651;49.138;8.900;2023-12-28T12:17:42;9.80;99.90
19037;DHT22;9651;49.138;8.900;2023-12-28T12:21:45;9.70;99.90
19037;DHT22;9651;49.138;8.900;2023-12-28T12:25:51;9.70;99.90
19037;DHT22;9651;49.138;8.900;2023-12-28T12:29:53;9.60;99.90
19037;DHT22;9651;49.138;8.900;2023-12-28T12:33:55;9.60;99.90
19037;DHT22;9651;49.138;8.900;2023-12-28T12:37:57;9.50;99.90
19037;DHT22;9651;49.138;8.900;2023-12-28T12:42:00;9.60;99.90
19037;DHT22;9651;49.138;8.900;2023-12-28T12:46:04;9.60;99.90
19037;DHT22;9651;49.138;8.900;2023-12-28T12:50:06;9.60;99.90
19037;DHT22;9651;49.138;8.900;2023-12-28T12:54:08;9.60;99.90
19037;DHT22;9651;49.138;8.900;2023-12-28T12:58:11;9.60;99.90
19037;DHT22;9651;49.138;8.900;2023-12-28T13:02:13;9.60;99.90
19037;DHT22;9651;49.138;8.900;2023-12-28T13:06:17;9.60;99.90
19037;DHT22;9651;49.138;8.900;2023-12-28T13:10:23;9.50;99.90
19037;DHT22;9651;49.138;8.900;2023-12-28T13:14:26;9.50;99.90
19037;DHT22;9651;49.138;8.900;2023-12-28T13:18:29;9.50;99.90
19037;DHT22;9651;49.138;8.900;2023-12-28T13:22:33;9.40;99.90
19037;DHT22;9651;49.138;8.900;2023-12-28T13:26:35;9.40;99.90
19037;DHT22;9651;49.138;8.900;2023-12-28T13:30:38;9.40;99.90
19037;DHT22;9651;49.138;8.900;2023-12-28T13:34:40;9.40;99.90
19037;DHT22;9651;49.138;8.900;2023-12-28T13:38:41;9.40;99.90
19037;DHT22;9651;49.138;8.900;2023-12-28T13:42:43;9.40;99.90
19037;DHT22;9651;49.138;8.900;2023-12-28T13:46:46;9.40;99.90
19037;DHT22;9651;49.138;8.900;2023-12-28T13:50:49;9.40;99.90
19037;DHT22;9651;49.138;8.900;2023-12-28T13:54:52;9.30;99.90
19037;DHT22;9651;49.138;8.900;2023-12-28T13:58:54;9.40;99.90
19037;DHT22;9651;49.138;8.900;2023-12-28T14:02:57;9.30;99.90
19037;DHT22;9651;49.138;8.900;2023-12-28T14:06:59;9.30;99.90
19037;DHT22;9651;49.138;8.900;2023-12-28T14:11:01;9.30;99.90
19037;DHT22;9651;49.138;8.900;2023-12-28T14:15:04;9.30;99.90
19037;DHT22;9651;49.138;8.900;2023-12-28T14:19:07;9.40;99.90
19037;DHT22;9651;49.138;8.900;2023-12-28T14:23:09;9.30;99.90
19037;DHT22;9651;49.138;8.900;2023-12-28T14:27:13;9.30;99.90
19037;DHT22;9651;49.138;8.900;2023-12-28T14:31:16;9.30;99.90
19037;DHT22;9651;49.138;8.900;2023-12-28T14:35:20;9.30;99.90
19037;DHT22;9651;49.138;8.900;2023-12-28T14:39:22;9.30;99.90
19037;DHT22;9651;49.138;8.900;2023-12-28T14:43:24;9.30;99.90
19037;DHT22;9651;49.138;8.900;2023-12-28T14:47:26;9.20;99.90
19037;DHT22;9651;49.138;8.900;2023-12-28T14:51:30;9.20;99.90
19037;DHT22;9651;49.138;8.900;2023-12-28T14:55:32;9.10;99.90
19037;DHT22;9651;49.138;8.900;2023-12-28T14:59:40;9.20;99.90
19037;DHT22;9651;49.138;8.900;2023-12-28T15:03:42;9.20;99.90
19037;DHT22;9651;49.138;8.900;2023-12-28T15:07:45;9.20;99.90
19037;DHT22;9651;49.138;8.900;2023-12-28T15:11:49;9.20;99.90
19037;DHT22;9651;49.138;8.900;2023-12-28T15:15:51;9.20;99.90
19037;DHT22;9651;49.138;8.900;2023-12-28T15:19:54;9.10;99.90
19037;DHT22;9651;49.138;8.900;2023-12-28T15:23:58;9.10;99.90
19037;DHT22;9651;49.138;8.900;2023-12-28T15:28:01;9.10;99.90
19037;DHT22;9651;49.138;8.900;2023-12-28T15:32:04;9.10;99.90
19037;DHT22;9651;49.138;8.900;2023-12-28T15:36:06;9.10;99.90
19037;DHT22;9651;49.138;8.900;2023-12-28T15:40:10;9.10;99.90
19037;DHT22;9651;49.138;8.900;2023-12-28T15:44:12;9.10;99.90
19037;DHT22;9651;49.138;8.900;2023-12-28T15:48:15;9.10;99.90
19037;DHT22;9651;49.138;8.900;2023-12-28T15:52:16;9.00;99.90
19037;DHT22;9651;49.138;8.900;2023-12-28T15:56:20;9.00;99.90
19037;DHT22;9651;49.138;8.900;2023-12-28T16:00:22;9.10;99.90
19037;DHT22;9651;49.138;8.900;2023-12-28T16:04:23;9.00;99.90
19037;DHT22;9651;49.138;8.900;2023-12-28T16:08:25;9.00;99.90
19037;DHT22;9651;49.138;8.900;2023-12-28T16:12:29;9.00;99.90
19037;DHT22;9651;49.138;8.900;2023-12-28T16:16:31;9.00;99.90
19037;DHT22;9651;49.138;8.900;2023-12-28T16:20:34;9.00;99.90
19037;DHT22;9651;49.138;8.900;2023-12-28T16:24:36;8.90;99.90
19037;DHT22;9651;49.138;8.900;2023-12-28T16:28:40;9.00;99.90
19037;DHT22;9651;49.138;8.900;2023-12-28T16:32:41;8.90;99.90
19037;DHT22;9651;49.138;8.900;2023-12-28T16:36:44;8.90;99.90
19037;DHT22;9651;49.138;8.900;2023-12-28T16:40:46;8.90;99.90
19037;DHT22;9651;49.138;8.900;2023-12-28T16:44:50;8.80;99.90
19037;DHT22;9651;49.138;8.900;2023-12-28T16:48:52;8.80;99.90
19037;DHT22;9651;49.138;8.900;2023-12-28T16:52:53;8.80;99.90
19037;DHT22;9651;49.138;8.900;2023-12-28T16:56:56;8.80;99.90
19037;DHT22;9651;49.138;8.900;2023-12-28T17:01:00;8.80;99.90
19037;DHT22;9651;49.138;8.900;2023-12-28T17:05:02;8.90;99.90
19037;DHT22;9651;49.138;8.900;2023-12-28T17:09:05;8.90;99.90
19037;DHT22;9651;49.138;8.900;2023-12-28T17:13:11;8.90;99.90
19037;DHT22;9651;49.138;8.900;2023-12-28T17:17:15;8.90;99.90
19037;DHT22;9651;49.138;8.900;2023-12-28T17:21:20;9.00;99.90
19037;DHT22;9651;49.138;8.900;2023-12-28T17:25:31;9.00;99.90
19037;DHT22;9651;49.138;8.900;2023-12-28T17:29:35;9.10;99.90
19037;DHT22;9651;49.138;8.900;2023-12-28T17:33:41;9.10;99.90
19037;DHT22;9651;49.138;8.900;2023-12-28T17:37:44;9.10;99.90
19037;DHT22;9651;49.138;8.900;2023-12-28T17:41:52;9.00;99.90
19037;DHT22;9651;49.138;8.900;2023-12-28T17:46:00;8.90;99.90
19037;DHT22;9651;49.138;8.900;2023-12-28T17:50:08;8.90;99.90
19037;DHT22;9651;49.138;8.900;2023-12-28T17:54:12;8.90;99.90
19037;DHT22;9651;49.138;8.900;2023-12-28T17:58:14;8.80;99.90
19037;DHT22;9651;49.138;8.900;2023-12-28T18:02:19;8.80;99.90
19037;DHT22;9651;49.138;8.900;2023-12-28T18:06:23;8.80;99.90
19037;DHT22;9651;49.138;8.900;2023-12-28T18:10:26;8.80;99.90
19037;DHT22;9651;49.138;8.900;2023-12-28T18:14:28;8.80;99.90
19037;DHT22;9651;49.138;8.900;2023-12-28T18:18:30;8.80;99.90
19037;DHT22;9651;49.138;8.900;2023-12-28T18:22:33;8.80;99.90
19037;DHT22;9651;49.138;8.900;2023-12-28T18:26:35;8.80;99.90
19037;DHT22;9651;49.138;8.900;2023-12-28T18:30:37;8.80;99.90
19037;DHT22;9651;49.138;8.900;2023-12-28T18:34:43;8.80;99.90
19037;DHT22;9651;49.138;8.900;2023-12-28T18:38:47;8.80;99.90
19037;DHT22;9651;49.138;8.900;2023-12-28T18:42:51;8.80;99.90
19037;DHT22;9651;49.138;8.900;2023-12-28T18:46:53;8.80;99.90
19037;DHT22;9651;49.138;8.900;2023-12-28T18:50:55;8.80;99.90
19037;DHT22;9651;49.138;8.900;2023-12-28T18:54:59;8.80;99.90
19037;DHT22;9651;49.138;8.900;2023-12-28T18:59:01;8.80;99.90
19037;DHT22;9651;49.138;8.900;2023-12-28T19:03:04;8.80;99.90
19037;DHT22;9651;49.138;8.900;2023-12-28T19:07:06;8.80;99.90
19037;DHT22;9651;49.138;8.900;2023-12-28T19:11:12;8.80;99.90
19037;DHT22;9651;49.138;8.900;2023-12-28T19:15:14;8.80;99.90
19037;DHT22;9651;49.138;8.900;2023-12-28T19:19:15;8.80;99.90
19037;DHT22;9651;49.138;8.900;2023-12-28T19:23:17;8.80;99.90
19037;DHT22;9651;49.138;8.900;2023-12-28T19:27:21;8.80;99.90
19037;DHT22;9651;49.138;8.900;2023-12-28T19:31:22;8.90;99.90
19037;DHT22;9651;49.138;8.900;2023-12-28T19:35:25;8.80;99.90
19037;DHT22;9651;49.138;8.900;2023-12-28T19:39:27;8.80;99.90
19037;DHT22;9651;49.138;8.900;2023-12-28T19:43:31;8.90;99.90
19037;DHT22;9651;49.138;8.900;2023-12-28T19:47:33;8.90;99.90
19037;DHT22;9651;49.138;8.900;2023-12-28T19:51:35;8.90;99.90
19037;DHT22;9651;49.138;8.900;2023-12-28T19:55:36;8.90;99.90
19037;DHT22;9651;49.138;8.900;2023-12-28T19:59:40;8.90;99.90
19037;DHT22;9651;49.138;8.900;2023-12-28T20:03:42;8.90;99.90
19037;DHT22;9651;49.138;8.900;2023-12-28T20:07:43;8.90;99.90
19037;DHT22;9651;49.138;8.900;2023-12-28T20:11:45;8.90;99.90
19037;DHT22;9651;49.138;8.900;2023-12-28T20:15:49;8.90;99.90
19037;DHT22;9651;49.138;8.900;2023-12-28T20:19:52;8.90;99.90
19037;DHT22;9651;49.138;8.900;2023-12-28T20:23:56;8.90;99.90
19037;DHT22;9651;49.138;8.900;2023-12-28T20:27:58;8.90;99.90
19037;DHT22;9651;49.138;8.900;2023-12-28T20:32:03;8.90;99.90
19037;DHT22;9651;49.138;8.900;2023-12-28T20:36:05;8.90;99.90
19037;DHT22;9651;49.138;8.900;2023-12-28T20:40:11;8.90;99.90
19037;DHT22;9651;49.138;8.900;2023-12-28T20:44:15;8.90;99.90
19037;DHT22;9651;49.138;8.900;2023-12-28T20:48:19;8.90;99.90
19037;DHT22;9651;49.138;8.900;2023-12-28T20:52:21;8.90;99.90
19037;DHT22;9651;49.138;8.900;2023-12-28T20:56:22;8.90;99.90
19037;DHT22;9651;49.138;8.900;2023-12-28T21:00:24;8.90;99.90
19037;DHT22;9651;49.138;8.900;2023-12-28T21:04:30;8.90;99.90
19037;DHT22;9651;49.138;8.900;2023-12-28T21:08:32;8.90;99.90
19037;DHT22;9651;49.138;8.900;2023-12-28T21:12:34;8.90;99.90
19037;DHT22;9651;49.138;8.900;2023-12-28T21:16:38;8.90;99.90
19037;DHT22;9651;49.138;8.900;2023-12-28T21:20:41;8.90;99.90
19037;DHT22;9651;49.138;8.900;2023-12-28T21:24:43;8.90;99.90
19037;DHT22;9651;49.138;8.900;2023-12-28T21:28:44;8.90;99.90
19037;DHT22;9651;49.138;8.900;2023-12-28T21:32:46;8.90;99.90
19037;DHT22;9651;49.138;8.900;2023-12-28T21:36:50;8.90;99.90
19037;DHT22;9651;49.138;8.900;2023-12-28T21:40:53;8.90;99.90
19037;DHT22;9651;49.138;8.900;2023-12-28T21:44:54;8.90;99.90
19037;DHT22;9651;49.138;8.900;2023-12-28T21:48:56;8.80;99.90
19037;DHT22;9651;49.138;8.900;2023-12-28T21:53:00;8.80;99.90
19037;DHT22;9651;49.138;8.900;2023-12-28T21:57:02;8.70;99.90
19037;DHT22;9651;49.138;8.900;2023-12-28T22:01:04;8.60;99.90
19037;DHT22;9651;49.138;8.900;2023-12-28T22:05:07;8.50;99.90
19037;DHT22;9651;49.138;8.900;2023-12-28T22:09:10;8.50;99.90
19037;DHT22;9651;49.138;8.900;2023-12-28T22:13:12;8.40;99.90
19037;DHT22;9651;49.138;8.900;2023-12-28T22:17:14;8.40;99.90
19037;DHT22;9651;49.138;8.900;2023-12-28T22:21:16;8.40;99.90
19037;DHT22;9651;49.138;8.900;2023-12-28T22:25:20;8.40;99.90
19037;DHT22;9651;49.138;8.900;2023-12-28T22:29:22;8.40;99.90
19037;DHT22;9651;49.138;8.900;2023-12-28T22:33:24;8.40;99.90
19037;DHT22;9651;49.138;8.900;2023-12-28T22:37:26;8.50;99.90
19037;DHT22;9651;49.138;8.900;2023-12-28T22:41:29;8.50;99.90
19037;DHT22;9651;49.138;8.900;2023-12-28T22:45:31;8.50;99.90
19037;DHT22;9651;49.138;8.900;2023-12-28T22:49:33;8.50;99.90
19037;DHT22;9651;49.138;8.900;2023-12-28T22:53:35;8.60;99.90
19037;DHT22;9651;49.138;8.900;2023-12-28T22:57:38;8.60;99.90
19037;DHT22;9651;49.138;8.900;2023-12-28T23:01:40;8.60;99.90
19037;DHT22;9651;49.138;8.900;2023-12-28T23:05:42;8.60;99.90
19037;DHT22;9651;49.138;8.900;2023-12-28T23:09:44;8.60;99.90
19037;DHT22;9651;49.138;8.900;2023-12-28T23:13:47;8.60;99.90
19037;DHT22;9651;49.138;8.900;2023-12-28T23:17:49;8.70;99.90
19037;DHT22;9651;49.138;8.900;2023-12-28T23:21:51;8.70;99.90
19037;DHT22;9651;49.138;8.900;2023-12-28T23:25:53;8.70;99.90
19037;DHT22;9651;49.138;8.900;2023-12-28T23:29:56;8.80;99.90
19037;DHT22;9651;49.138;8.900;2023-12-28T23:33:58;8.80;99.90
19037;DHT22;9651;49.138;8.900;2023-12-28T23:38:01;8.80;99.90
19037;DHT22;9651;49.138;8.900;2023-12-28T23:42:04;8.90;99.90
19037;DHT22;9651;49.138;8.900;2023-12-28T23:46:07;9.00;99.90
19037;DHT22;9651;49.138;8.900;2023-12-28T23:50:09;9.10;99.90
19037;DHT22;9651;49.138;8.900;2023-12-28T23:54:11;9.10;99.90
19037;DHT22;9651;49.138;8.900;2023-12-28T23:58:13;9.30;99.90
